KGYY/GYY METAR and TAF weather

Enter ICAO airport designator
Station Type Date Time Source
KGYY METAR 2019/04/20 18:45 UTC NOAA

KGYY 201845Z 35016G32KT 15SM FEW150 11/M02 A2982


Station Type Date Time Source
KGYY Decoded METAR 2019/04/20 18:45 UTC NOAA

Gary Regional, IN, United States (KGYY) 41-37N 087-25W
Apr 20, 2019 - 02:45 PM EDT / 2019.04.20 1845 UTC
Wind: from the N (350 degrees) at 18 MPH (16 KT) gusting to 37 MPH (32 KT):0
Visibility: 15 mile(s):0
Sky conditions: mostly clear
Temperature: 51 F (11 C)
Dew Point: 28 F (-2 C)
Relative Humidity: 40%
Pressure (altimeter): 29.82 in. Hg (1009 hPa)
ob: KGYY 201845Z 35016G32KT 15SM FEW150 11/M02 A2982
cycle: 19

Station Type Date Time Source
KGYY TAF 2019/04/20 18:24 UTC NOAA

TAF KGYY 201723Z 2018/2118 35019G29KT P6SM FEW250
FM202200 35013G21KT P6SM SKC
FM210130 VRB03KT P6SM SKC
FM211000 18008KT P6SM FEW200

Example: see airport list